Kaduna Airport

DNKA · Kaduna, 尼日利亚

METAR DNKA · Kaduna Airport

16 六月 11:30 LT
1h
使用的METAR站距离机场188 km。
罗盘
风向 的 风向 的 风向 到 风向 270° Kaduna Airport 5/23
风: 3 kt, 1 beaufort

2 kt

2 kt
改变
0 ft 2.000 4.000 6.000 8.000 10.000
Cloud Cloud Cloud Cloud
SCT 800
Cloud Cloud
FEW 2.000
Cloud Cloud Cloud Cloud Cloud Cloud
BKN 6.000
METAR FGSL 161030Z 27003KT 240V320 9999 SCT008 FEW020CB BKN060 27/26 Q1015 NOSIG

METAR Kaduna Airport - DNKA/KAD

Kaduna Airport是,尼日利亚中的中型机场。 该机场位于纬度10,69585和经度7,32015。 该机场有一条跑道: 5/23. 本场的ICAO机场代码为DNKA。 该机场的IATA代码为KAD。 机场在Brazzaville FIR中。

该航空气象观测是针对Malabo Airport在2024年6月16日 11:30, 当地时间进行的。

机场观察

风向为270°,速度为3 kt。 风向在240°和320°之间变化。

可见度为10 km 或者更多。

有疏云,零星散落的云朵在800 ft的高度, 几云 积雨云在2.000 ft的高度 和 碎云在6.000 ft的高度。 破损或更高的上限为6.000 ft。

温度和风寒是27 °C。 热指数为32。 露点为26 °C,相对湿度为94%。 海平面上的气压为1015 hPa (QNH)。

白天

今天,太阳从06:09升起,在18:54降落。 这适用于Kaduna Airport,世界夏令时可能有所不同。 当地时间与世界标准时间之间的时差为+1 小时。 夏令时目前正在进行中。

公司介绍

我们没有关于这个机场的公司信息。

体会

到Vliegles.nl去找飞行课程,跳伞和其他飞行体验。 浏览页面,了解Kaduna Airport附近所有可用的活动。 你也可以使用搜索功能来寻找你所在地附近的特定飞行课程、跳伞或其他飞行体验。

跑道

Id 标题 侧风 逆风 侧风 %
5/23 050°-230° 2 kt 2 kt 64 %

逆风成分最大的方向会被突出显示,并用于横风计算。 这并不一定意味着这个方向在使用。

乌云

800 ft SCT 疏云,零星散落的云朵
2.000 ft FEW 几云 积雨云
6.000 ft BKN 碎云

温度 & 天气

温度 27 °C
露点 26 °C
相对湿度 94%
热度指数 32 °C
Kp-index 1 (0-9)

白天

日出
06:15
中午
12:25
日落
18:36 (5:14)

小工具

你想在你的网站上有一个关于Kaduna Airport的当前航空天气(METAR)的小部件吗?

显示HTML代码
报告变更